Time;durP1;ratioP1;P1;durP2;ratioP2;P2;SDS_P1;SDS_P2;PMS_P1;PMS_P2;Temp;Humidity;BMP_temperature;BMP_pressure;BME280_temperature;BME280_humidity;BME280_pressure;Samples;Min_cycle;Max_cycle;Signal;HPM_P1;HPM_P2
2023/01/30 00:01:32;;;;;;;28.77;15.68;;;4.30;99.90;;;;;;4861038;29;20204;-75
2023/01/30 00:03:58;;;;;;;25.23;15.30;;;4.30;99.90;;;;;;4861542;29;20173;-75
2023/01/30 00:06:24;;;;;;;24.55;15.35;;;4.30;99.90;;;;;;4875259;29;20701;-74
2023/01/30 00:08:53;;;;;;;23.33;14.02;;;4.30;99.90;;;;;;4876326;29;20172;-75
2023/01/30 00:11:25;;;;;;;29.45;15.52;;;4.30;99.90;;;;;;4869693;29;20353;-75
2023/01/30 00:13:51;;;;;;;25.40;14.98;;;4.30;99.90;;;;;;4876015;29;20200;-75
2023/01/30 00:16:17;;;;;;;23.73;14.98;;;4.30;99.90;;;;;;4860432;29;20334;-75
2023/01/30 00:18:45;;;;;;;25.60;16.63;;;4.30;99.90;;;;;;4876298;29;20191;-75
2023/01/30 00:21:13;;;;;;;23.30;13.90;;;4.40;99.90;;;;;;4861338;29;20179;-75
2023/01/30 00:23:39;;;;;;;25.55;14.80;;;4.40;99.90;;;;;;4860589;29;20215;-75
2023/01/30 00:26:06;;;;;;;25.10;15.15;;;4.40;99.90;;;;;;4858733;29;20211;-75
2023/01/30 00:28:33;;;;;;;27.65;16.70;;;4.30;99.90;;;;;;4860620;29;20194;-75
2023/01/30 00:30:58;;;;;;;26.17;14.50;;;4.40;99.90;;;;;;4865383;29;20214;-75
2023/01/30 00:33:29;;;;;;;28.05;15.25;;;4.40;99.90;;;;;;4881845;29;20191;-75
2023/01/30 00:35:59;;;;;;;27.87;15.43;;;4.40;99.90;;;;;;4875722;29;20226;-75
2023/01/30 00:38:29;;;;;;;31.40;17.25;;;4.40;99.90;;;;;;4869394;29;20477;-75
2023/01/30 00:40:59;;;;;;;27.02;14.68;;;4.40;99.90;;;;;;4840446;29;20179;-76
2023/01/30 00:49:09;;;;;;;25.27;15.55;;;4.40;99.90;;;;;;4859971;29;20676;-75
2023/01/30 00:51:37;;;;;;;26.52;14.35;;;4.40;99.90;;;;;;4861417;29;20185;-74
2023/01/30 00:54:08;;;;;;;24.58;15.32;;;4.40;99.90;;;;;;4854651;29;20202;-75
2023/01/30 00:56:34;;;;;;;26.63;15.65;;;4.40;99.90;;;;;;4857255;29;20793;-75
2023/01/30 00:59:00;;;;;;;24.93;14.97;;;4.40;99.90;;;;;;4867177;29;20286;-75
2023/01/30 01:01:31;;;;;;;25.70;15.80;;;4.40;99.90;;;;;;4878180;29;20428;-75
2023/01/30 01:04:15;;;;;;;29.48;15.32;;;4.40;99.90;;;;;;4831737;29;20191;-75
2023/01/30 01:06:41;;;;;;;26.03;15.90;;;4.40;99.90;;;;;;4859981;29;20293;-75
2023/01/30 01:09:09;;;;;;;23.52;14.48;;;4.40;99.90;;;;;;4879432;29;20771;-75
2023/01/30 01:11:35;;;;;;;24.95;14.68;;;4.50;99.90;;;;;;4878354;29;20206;-75
2023/01/30 01:14:05;;;;;;;24.67;15.40;;;4.50;99.90;;;;;;4863562;29;20205;-75
2023/01/30 01:16:35;;;;;;;25.48;15.20;;;4.50;99.90;;;;;;4844332;29;20480;-75
2023/01/30 01:19:26;;;;;;;25.25;13.77;;;4.50;99.90;;;;;;4838793;29;20198;-75
2023/01/30 01:21:52;;;;;;;27.70;15.52;;;4.50;99.90;;;;;;4862712;29;20199;-75
2023/01/30 01:24:18;;;;;;;23.20;14.40;;;4.50;99.90;;;;;;4862832;29;20263;-74
2023/01/30 01:26:46;;;;;;;27.05;15.18;;;4.50;99.90;;;;;;4863150;29;20214;-76
2023/01/30 01:29:15;;;;;;;26.33;15.83;;;4.50;99.90;;;;;;4864829;29;20254;-75
2023/01/30 01:31:42;;;;;;;24.00;15.00;;;4.60;99.90;;;;;;4878251;29;20451;-75
2023/01/30 01:34:11;;;;;;;28.23;14.25;;;4.60;99.90;;;;;;4878372;29;20654;-75
2023/01/30 01:36:37;;;;;;;25.80;14.27;;;4.60;99.90;;;;;;4887728;29;20224;-75
2023/01/30 01:39:09;;;;;;;26.90;15.88;;;4.60;99.90;;;;;;4868596;29;20195;-75
2023/01/30 01:41:39;;;;;;;27.48;15.27;;;4.60;99.90;;;;;;4877777;29;20214;-75
2023/01/30 01:44:07;;;;;;;27.55;15.45;;;4.60;99.90;;;;;;4863212;29;20266;-75
2023/01/30 01:46:42;;;;;;;26.20;14.85;;;4.60;99.90;;;;;;4871825;29;20278;-75
2023/01/30 01:49:19;;;;;;;24.85;13.85;;;4.60;99.90;;;;;;4863229;29;20239;-75
2023/01/30 01:52:02;;;;;;;26.85;16.30;;;4.60;99.90;;;;;;4862837;29;20274;-76
2023/01/30 01:54:30;;;;;;;25.25;15.32;;;4.60;99.90;;;;;;4879547;29;20273;-75
2023/01/30 01:57:01;;;;;;;29.25;15.18;;;4.60;99.90;;;;;;4896732;29;20194;-75
2023/01/30 01:59:54;;;;;;;22.25;13.75;;;4.60;99.90;;;;;;4871958;29;20290;-75
2023/01/30 02:02:20;;;;;;;21.50;14.10;;;4.60;99.90;;;;;;4873552;29;20546;-75
2023/01/30 02:05:01;;;;;;;23.70;15.23;;;4.70;99.90;;;;;;4844005;29;20215;-76
2023/01/30 02:07:39;;;;;;;22.33;13.77;;;4.60;99.90;;;;;;4828734;29;20561;-75
2023/01/30 02:10:13;;;;;;;24.02;14.27;;;4.60;99.90;;;;;;4856137;29;20218;-75
2023/01/30 02:12:40;;;;;;;29.27;16.05;;;4.60;99.90;;;;;;4862524;29;20207;-75
2023/01/30 02:15:06;;;;;;;26.88;15.40;;;4.70;99.90;;;;;;4862426;29;20678;-75
2023/01/30 02:17:35;;;;;;;22.80;15.13;;;4.70;99.90;;;;;;4877081;29;20263;-75
2023/01/30 02:20:17;;;;;;;26.60;14.48;;;4.70;99.90;;;;;;4861991;29;20198;-75
2023/01/30 02:23:13;;;;;;;25.60;15.52;;;4.70;99.90;;;;;;4858425;29;20581;-75
2023/01/30 02:26:17;;;;;;;25.17;15.77;;;4.70;99.90;;;;;;4852308;29;20218;-74
2023/01/30 02:28:58;;;;;;;24.17;14.70;;;4.70;99.90;;;;;;4863102;29;20187;-75
2023/01/30 02:31:42;;;;;;;27.08;16.00;;;4.70;99.90;;;;;;4866386;29;20553;-75
2023/01/30 02:34:48;;;;;;;23.42;14.57;;;4.70;99.90;;;;;;4862321;29;20211;-75
2023/01/30 02:37:22;;;;;;;26.48;15.05;;;4.70;99.90;;;;;;4861640;29;20275;-75
2023/01/30 02:40:29;;;;;;;23.58;16.67;;;4.70;99.90;;;;;;4861679;29;20238;-75
2023/01/30 02:43:13;;;;;;;22.23;13.63;;;4.80;99.90;;;;;;4861267;29;20206;-75
2023/01/30 02:46:03;;;;;;;24.38;15.70;;;4.80;99.90;;;;;;4877415;29;20206;-75
2023/01/30 02:48:37;;;;;;;27.38;15.30;;;4.80;99.90;;;;;;4843501;29;20659;-75
2023/01/30 02:51:18;;;;;;;25.13;15.73;;;4.80;99.90;;;;;;4844619;29;20235;-75
2023/01/30 02:53:47;;;;;;;23.15;13.50;;;4.80;99.90;;;;;;4858939;29;20178;-75
2023/01/30 02:56:17;;;;;;;21.88;14.35;;;4.80;99.90;;;;;;4867141;29;20227;-75
2023/01/30 02:58:51;;;;;;;23.95;14.32;;;4.80;99.90;;;;;;4828179;29;20231;-75
2023/01/30 03:01:43;;;;;;;32.22;16.10;;;4.80;99.90;;;;;;4865425;29;20204;-75
2023/01/30 03:04:40;;;;;;;26.15;14.98;;;4.90;99.90;;;;;;4861384;29;20263;-75
2023/01/30 03:07:23;;;;;;;24.80;15.48;;;4.90;99.90;;;;;;4860392;29;20600;-75
2023/01/30 03:10:11;;;;;;;26.77;15.57;;;4.90;99.90;;;;;;4876303;29;20258;-75
2023/01/30 03:13:00;;;;;;;22.85;14.15;;;4.90;99.90;;;;;;4858456;29;20187;-75
2023/01/30 03:15:57;;;;;;;25.58;16.15;;;4.90;99.90;;;;;;4861030;29;20207;-75
2023/01/30 03:18:23;;;;;;;22.35;14.25;;;4.90;99.90;;;;;;4861226;29;20198;-75
2023/01/30 03:20:53;;;;;;;23.40;15.00;;;4.90;99.90;;;;;;4861010;29;20738;-75
2023/01/30 03:23:19;;;;;;;23.90;14.85;;;4.90;99.90;;;;;;4842701;29;20192;-75
2023/01/30 03:25:47;;;;;;;26.03;15.20;;;4.90;99.90;;;;;;4869975;29;20217;-75
2023/01/30 03:28:20;;;;;;;20.98;14.13;;;4.90;99.90;;;;;;4876401;29;20485;-75
2023/01/30 03:30:46;;;;;;;21.52;14.13;;;4.90;99.90;;;;;;4875503;29;20179;-75
2023/01/30 03:33:17;;;;;;;21.45;14.00;;;4.90;99.90;;;;;;4855673;29;20190;-75
2023/01/30 03:35:47;;;;;;;22.73;14.05;;;4.90;99.90;;;;;;4861391;29;20700;-75
2023/01/30 03:38:14;;;;;;;23.58;14.43;;;4.90;99.90;;;;;;4876062;29;20290;-75
2023/01/30 03:40:40;;;;;;;25.55;14.70;;;4.90;99.90;;;;;;4859961;29;20198;-75
2023/01/30 03:43:08;;;;;;;25.13;15.98;;;4.90;99.90;;;;;;4841489;29;20206;-75
2023/01/30 03:45:38;;;;;;;26.15;14.00;;;4.90;99.90;;;;;;4860425;29;20686;-75
2023/01/30 03:48:09;;;;;;;24.90;14.30;;;4.90;99.90;;;;;;4857713;29;20666;-75
2023/01/30 03:50:38;;;;;;;26.15;16.23;;;4.90;99.90;;;;;;4873655;29;20216;-75
2023/01/30 03:53:04;;;;;;;29.42;17.35;;;5.00;99.90;;;;;;4860893;29;20637;-75
2023/01/30 03:55:33;;;;;;;28.87;16.90;;;5.00;99.90;;;;;;4875539;29;20238;-75
2023/01/30 03:58:02;;;;;;;25.83;16.80;;;5.00;99.90;;;;;;4860690;29;20542;-75
2023/01/30 04:00:34;;;;;;;25.83;14.57;;;5.00;99.90;;;;;;4888733;29;20214;-75
2023/01/30 04:03:01;;;;;;;27.10;15.65;;;5.00;99.90;;;;;;4859709;29;20210;-75
2023/01/30 04:05:27;;;;;;;24.75;15.50;;;5.00;99.90;;;;;;4859120;29;20577;-75
2023/01/30 04:08:00;;;;;;;26.60;15.45;;;5.00;99.90;;;;;;4875302;29;20202;-74
2023/01/30 04:10:28;;;;;;;22.25;14.07;;;5.00;99.90;;;;;;4860197;29;20210;-75
2023/01/30 04:12:59;;;;;;;26.67;14.63;;;5.00;99.90;;;;;;4867180;29;20179;-75
2023/01/30 04:15:26;;;;;;;22.08;14.13;;;5.00;99.90;;;;;;4861173;29;20247;-75
2023/01/30 04:18:28;;;;;;;22.73;14.07;;;5.00;99.90;;;;;;4870760;29;20222;-75
2023/01/30 04:21:02;;;;;;;21.90;13.15;;;5.00;99.90;;;;;;4874296;29;20226;-75
2023/01/30 04:23:39;;;;;;;22.88;14.70;;;5.00;99.90;;;;;;4882114;29;20258;-75
2023/01/30 04:26:09;;;;;;;24.52;14.30;;;5.00;99.90;;;;;;4866220;29;20213;-75
2023/01/30 04:28:39;;;;;;;22.02;14.38;;;5.10;99.90;;;;;;4860425;29;20175;-75
2023/01/30 04:31:08;;;;;;;20.52;13.25;;;5.00;99.90;;;;;;4874309;29;20183;-75
2023/01/30 04:33:43;;;;;;;25.25;14.93;;;5.00;99.90;;;;;;4860259;29;20625;-75
2023/01/30 04:36:11;;;;;;;25.33;15.52;;;5.00;99.90;;;;;;4871822;29;20214;-75
2023/01/30 04:38:43;;;;;;;23.60;14.35;;;5.10;99.90;;;;;;4878578;29;20159;-75
2023/01/30 04:41:11;;;;;;;23.60;14.45;;;5.10;99.90;;;;;;4883470;29;20263;-75
2023/01/30 04:43:40;;;;;;;20.73;13.23;;;5.10;99.90;;;;;;4863937;29;20248;-75
2023/01/30 04:46:27;;;;;;;25.63;14.35;;;5.10;99.90;;;;;;4879360;29;20207;-75
2023/01/30 04:48:55;;;;;;;24.73;13.18;;;5.10;99.90;;;;;;4863572;29;20239;-75
2023/01/30 04:51:21;;;;;;;23.30;14.55;;;5.10;99.90;;;;;;4848949;29;20187;-75
2023/01/30 04:53:47;;;;;;;23.10;13.50;;;5.10;99.90;;;;;;4847839;29;20188;-75
2023/01/30 04:56:13;;;;;;;20.20;13.57;;;5.10;99.90;;;;;;4863446;29;20223;-75
2023/01/30 04:58:42;;;;;;;22.40;13.82;;;5.10;99.90;;;;;;4863066;29;20462;-75
2023/01/30 05:01:29;;;;;;;23.85;13.82;;;5.00;99.90;;;;;;4862326;29;20180;-75
2023/01/30 05:03:57;;;;;;;20.30;12.27;;;5.10;99.90;;;;;;4876652;29;20209;-74
2023/01/30 05:06:29;;;;;;;22.13;14.35;;;5.10;99.90;;;;;;4860950;29;20211;-74
2023/01/30 05:08:59;;;;;;;20.58;12.43;;;5.10;99.90;;;;;;4861702;29;20673;-73
2023/01/30 05:11:29;;;;;;;19.98;14.27;;;5.10;99.90;;;;;;4860815;29;20191;-74
2023/01/30 05:14:00;;;;;;;19.60;12.52;;;5.10;99.90;;;;;;4846524;29;20179;-74
2023/01/30 05:16:29;;;;;;;19.38;11.30;;;5.10;99.90;;;;;;4861174;29;20217;-75
2023/01/30 05:18:57;;;;;;;19.27;12.85;;;5.10;99.90;;;;;;4876954;29;20175;-74
2023/01/30 05:21:29;;;;;;;21.08;13.00;;;5.10;99.90;;;;;;4861494;29;20179;-74
2023/01/30 05:23:58;;;;;;;18.05;11.93;;;5.20;99.90;;;;;;4876647;29;20255;-74
2023/01/30 05:26:26;;;;;;;17.17;12.10;;;5.20;99.90;;;;;;4845628;29;20214;-75
2023/01/30 05:28:55;;;;;;;19.67;12.50;;;5.20;99.90;;;;;;4862369;29;20192;-74
2023/01/30 05:31:21;;;;;;;18.00;11.98;;;5.20;99.90;;;;;;4876303;29;20179;-74
2023/01/30 05:33:52;;;;;;;15.52;11.93;;;5.20;99.90;;;;;;4846409;29;20262;-74
2023/01/30 05:36:21;;;;;;;16.08;11.48;;;5.20;99.90;;;;;;4859810;29;20262;-74
2023/01/30 05:38:49;;;;;;;15.77;10.98;;;5.20;99.90;;;;;;4853275;29;20179;-74
2023/01/30 05:41:18;;;;;;;18.37;12.27;;;5.20;99.90;;;;;;4871330;29;20190;-74
2023/01/30 05:43:48;;;;;;;16.20;11.52;;;5.20;99.90;;;;;;4866185;29;20428;-75
2023/01/30 05:46:14;;;;;;;16.95;11.10;;;5.20;99.90;;;;;;4862231;29;20223;-74
2023/01/30 05:48:40;;;;;;;17.35;11.55;;;5.20;99.90;;;;;;4860496;29;20529;-74
2023/01/30 05:51:18;;;;;;;18.07;10.53;;;5.20;99.90;;;;;;4862130;29;20315;-75
2023/01/30 05:53:47;;;;;;;16.55;10.30;;;5.20;99.90;;;;;;4859998;29;20432;-74
2023/01/30 05:56:17;;;;;;;15.48;10.60;;;5.30;99.90;;;;;;4873539;29;20210;-74
2023/01/30 05:58:48;;;;;;;14.63;10.32;;;5.30;99.90;;;;;;4860109;29;20219;-75
2023/01/30 06:01:17;;;;;;;17.00;11.35;;;5.30;99.90;;;;;;4860917;29;20749;-74
2023/01/30 06:03:43;;;;;;;15.27;10.02;;;5.30;99.90;;;;;;4876095;29;20746;-74
2023/01/30 06:06:10;;;;;;;16.30;10.70;;;5.30;99.90;;;;;;4876123;29;20248;-74
2023/01/30 06:08:36;;;;;;;16.73;10.65;;;5.30;99.90;;;;;;4860908;29;20883;-74
2023/01/30 06:11:14;;;;;;;14.38;10.35;;;5.30;99.90;;;;;;4861507;29;20178;-74
2023/01/30 06:13:40;;;;;;;17.33;10.07;;;5.30;99.90;;;;;;4876219;29;20203;-74
2023/01/30 06:16:08;;;;;;;16.48;10.20;;;5.30;99.90;;;;;;4860653;29;20220;-74
2023/01/30 06:18:35;;;;;;;12.60;10.38;;;5.30;99.90;;;;;;4876014;29;20175;-74
2023/01/30 06:21:01;;;;;;;15.32;10.90;;;5.30;99.90;;;;;;4861424;29;20183;-74
2023/01/30 06:23:29;;;;;;;14.85;10.68;;;5.30;99.90;;;;;;4860612;29;20189;-74
2023/01/30 06:25:56;;;;;;;16.80;10.55;;;5.30;99.90;;;;;;4860308;29;20219;-74
2023/01/30 06:28:23;;;;;;;15.32;9.98;;;5.30;99.90;;;;;;4859987;29;20183;-74
2023/01/30 06:30:50;;;;;;;18.15;10.68;;;5.30;99.90;;;;;;4829985;29;20186;-74
2023/01/30 06:33:21;;;;;;;15.38;9.32;;;5.30;99.90;;;;;;4861294;29;20297;-75
2023/01/30 06:35:49;;;;;;;11.95;9.75;;;5.30;99.90;;;;;;4875377;29;20202;-74
2023/01/30 06:38:16;;;;;;;13.18;10.00;;;5.30;99.90;;;;;;4860078;29;20211;-75
2023/01/30 06:40:46;;;;;;;14.45;8.98;;;5.30;99.90;;;;;;4875789;29;20202;-74
2023/01/30 06:43:12;;;;;;;12.40;10.02;;;5.40;99.90;;;;;;4875720;29;20240;-74
2023/01/30 06:45:39;;;;;;;13.52;10.30;;;5.40;99.90;;;;;;4860904;29;20203;-74
2023/01/30 06:48:07;;;;;;;16.08;10.45;;;5.40;99.90;;;;;;4860218;29;20205;-74
2023/01/30 06:50:36;;;;;;;13.75;9.07;;;5.40;99.90;;;;;;4829181;29;20268;-74
2023/01/30 06:53:05;;;;;;;12.13;9.10;;;5.40;99.90;;;;;;4859001;29;20282;-73
2023/01/30 06:55:35;;;;;;;12.20;9.35;;;5.40;99.90;;;;;;4873480;29;20242;-74
2023/01/30 06:58:14;;;;;;;13.35;8.93;;;5.40;99.90;;;;;;4873991;29;20599;-72
2023/01/30 07:00:42;;;;;;;14.05;9.90;;;5.40;99.90;;;;;;4859614;29;20183;-73
2023/01/30 07:03:12;;;;;;;13.48;8.98;;;5.40;99.90;;;;;;4859971;29;20183;-72
2023/01/30 07:05:44;;;;;;;13.23;10.02;;;5.40;99.90;;;;;;4874344;29;20570;-73
2023/01/30 07:08:11;;;;;;;11.80;8.75;;;5.40;99.90;;;;;;4874847;29;20191;-72
2023/01/30 07:10:39;;;;;;;15.88;10.13;;;5.40;99.90;;;;;;4874987;29;20200;-72
2023/01/30 07:13:05;;;;;;;13.20;10.38;;;5.40;99.90;;;;;;4859718;29;20183;-72
2023/01/30 07:15:31;;;;;;;10.60;8.40;;;5.40;99.90;;;;;;4844495;29;20215;-72
2023/01/30 07:17:58;;;;;;;12.63;9.60;;;5.40;99.90;;;;;;4859018;29;20757;-72
2023/01/30 07:20:24;;;;;;;10.85;8.50;;;5.40;99.90;;;;;;4829026;29;20246;-72
2023/01/30 07:22:52;;;;;;;14.85;9.60;;;5.40;99.90;;;;;;4859775;29;20192;-72
2023/01/30 07:25:22;;;;;;;13.43;9.35;;;5.40;99.90;;;;;;4874516;29;20720;-72
2023/01/30 07:28:03;;;;;;;14.27;9.90;;;5.40;99.90;;;;;;4859322;29;20215;-72
2023/01/30 07:30:35;;;;;;;12.75;9.60;;;5.40;99.90;;;;;;4874374;29;20199;-72
2023/01/30 07:33:05;;;;;;;13.27;9.82;;;5.40;99.90;;;;;;4859595;29;20581;-72
2023/01/30 07:35:33;;;;;;;14.80;9.45;;;5.40;99.90;;;;;;4862922;29;20219;-72
2023/01/30 07:38:03;;;;;;;13.93;9.48;;;5.50;99.90;;;;;;4878958;29;20198;-72
2023/01/30 07:40:29;;;;;;;16.75;10.75;;;5.50;99.90;;;;;;4877874;29;20185;-72
2023/01/30 07:42:59;;;;;;;13.30;9.57;;;5.50;99.90;;;;;;4864758;29;20199;-72
2023/01/30 07:45:48;;;;;;;14.85;10.02;;;5.50;99.90;;;;;;4858419;29;20978;-72
2023/01/30 07:48:18;;;;;;;15.70;10.45;;;5.50;99.90;;;;;;4860021;29;20287;-72
2023/01/30 07:50:47;;;;;;;14.85;10.00;;;5.50;99.90;;;;;;4858688;29;20197;-72
2023/01/30 07:53:17;;;;;;;14.88;9.95;;;5.50;99.90;;;;;;4874072;29;20183;-72
2023/01/30 07:55:43;;;;;;;11.60;8.90;;;5.50;99.90;;;;;;4874264;29;20255;-73
2023/01/30 07:58:14;;;;;;;13.90;9.77;;;5.60;99.90;;;;;;4873216;29;20282;-74
2023/01/30 08:00:40;;;;;;;14.90;9.45;;;5.50;99.90;;;;;;4858044;29;20201;-71
2023/01/30 08:03:14;;;;;;;15.65;10.10;;;5.50;99.90;;;;;;4850300;29;20203;-71
2023/01/30 08:05:45;;;;;;;15.73;10.75;;;5.50;99.90;;;;;;4858554;29;20233;-72
2023/01/30 08:08:14;;;;;;;12.40;9.82;;;5.60;99.90;;;;;;4854371;29;20350;-74
2023/01/30 08:10:44;;;;;;;12.00;9.05;;;5.50;99.90;;;;;;4859189;29;20259;-72
2023/01/30 08:13:11;;;;;;;15.13;10.75;;;5.50;99.90;;;;;;4858120;29;20541;-72
2023/01/30 08:15:39;;;;;;;15.55;10.07;;;5.50;99.90;;;;;;4842587;29;20211;-72
2023/01/30 08:18:08;;;;;;;13.13;10.15;;;5.50;99.90;;;;;;4873175;29;20608;-72
2023/01/30 08:20:37;;;;;;;13.98;9.45;;;5.50;99.90;;;;;;4873576;29;20298;-72
2023/01/30 08:23:05;;;;;;;16.10;9.70;;;5.50;99.90;;;;;;4858273;29;20229;-72
2023/01/30 08:25:39;;;;;;;17.02;9.80;;;5.50;99.90;;;;;;4862220;29;20278;-72
2023/01/30 08:28:05;;;;;;;12.23;9.50;;;5.50;99.90;;;;;;4851498;29;20270;-72
2023/01/30 08:30:31;;;;;;;13.32;9.10;;;5.50;99.90;;;;;;4850768;29;20247;-72
2023/01/30 08:32:57;;;;;;;13.20;9.43;;;5.60;99.90;;;;;;4858462;29;20191;-72
2023/01/30 08:35:28;;;;;;;12.77;9.07;;;5.60;99.90;;;;;;4873693;29;20203;-72
2023/01/30 08:37:57;;;;;;;12.68;9.18;;;5.60;99.90;;;;;;4857055;29;20227;-72
2023/01/30 08:40:23;;;;;;;15.97;9.80;;;5.60;99.90;;;;;;4858075;29;20210;-72
2023/01/30 08:42:49;;;;;;;12.60;8.80;;;5.60;99.90;;;;;;4857605;29;20433;-72
2023/01/30 08:45:15;;;;;;;13.10;9.45;;;5.60;99.90;;;;;;4842777;29;20271;-72
2023/01/30 08:47:46;;;;;;;11.52;8.57;;;5.60;99.90;;;;;;4859475;29;20665;-72
2023/01/30 08:50:12;;;;;;;13.45;8.75;;;5.70;99.90;;;;;;4858008;29;20687;-72
2023/01/30 08:52:38;;;;;;;16.08;10.55;;;5.70;99.90;;;;;;4859033;29;20195;-72
2023/01/30 08:55:11;;;;;;;12.68;9.70;;;5.70;99.90;;;;;;4855096;29;20297;-71
2023/01/30 08:57:37;;;;;;;13.27;9.05;;;5.70;99.90;;;;;;4857783;29;20231;-72
2023/01/30 09:00:08;;;;;;;13.20;9.57;;;5.70;99.90;;;;;;4863231;29;20282;-72
2023/01/30 09:02:37;;;;;;;15.30;9.70;;;5.70;99.90;;;;;;4858075;29;20223;-72
2023/01/30 09:05:04;;;;;;;12.60;7.93;;;5.70;99.90;;;;;;4857583;29;20606;-72
2023/01/30 09:07:30;;;;;;;11.82;8.43;;;5.70;99.90;;;;;;4871384;29;20211;-72
2023/01/30 09:09:56;;;;;;;11.60;7.80;;;5.80;99.90;;;;;;4851368;29;20597;-72
2023/01/30 09:12:23;;;;;;;13.02;7.75;;;5.70;99.90;;;;;;4841541;29;20306;-72
2023/01/30 09:14:54;;;;;;;13.50;7.60;;;5.80;99.90;;;;;;4858817;29;20229;-72
2023/01/30 09:17:24;;;;;;;17.50;7.55;;;5.80;99.90;;;;;;4872648;29;20200;-72
2023/01/30 09:19:52;;;;;;;13.18;7.07;;;5.80;99.90;;;;;;4857400;29;20225;-72
2023/01/30 09:22:18;;;;;;;13.57;6.70;;;5.80;99.90;;;;;;4858911;29;20171;-72
2023/01/30 09:24:44;;;;;;;8.90;5.50;;;5.80;99.90;;;;;;4858433;29;20222;-71
2023/01/30 09:27:10;;;;;;;12.20;6.35;;;5.80;99.90;;;;;;4870966;29;20875;-71
2023/01/30 09:29:40;;;;;;;9.88;6.68;;;5.80;99.90;;;;;;4856236;29;20204;-71
2023/01/30 09:32:07;;;;;;;13.67;8.10;;;5.90;99.90;;;;;;4854660;29;20179;-71
2023/01/30 09:34:36;;;;;;;10.05;5.45;;;5.90;99.90;;;;;;4853709;29;21023;-71
2023/01/30 09:37:03;;;;;;;10.00;5.80;;;5.90;99.90;;;;;;4857625;29;20196;-71
2023/01/30 09:39:29;;;;;;;10.93;5.70;;;5.90;99.90;;;;;;4875018;29;20697;-72
2023/01/30 09:42:06;;;;;;;10.15;5.75;;;5.90;99.90;;;;;;4875719;29;20179;-72
2023/01/30 09:45:09;;;;;;;10.68;5.05;;;5.90;99.90;;;;;;4861963;29;20171;-72
2023/01/30 09:47:44;;;;;;;10.00;5.18;;;5.90;99.90;;;;;;4860814;29;20258;-72
2023/01/30 09:50:16;;;;;;;11.40;4.65;;;5.90;99.90;;;;;;4861590;29;20266;-72
2023/01/30 09:52:51;;;;;;;14.85;5.18;;;5.90;99.90;;;;;;4862008;29;20185;-72
2023/01/30 09:55:25;;;;;;;9.57;4.10;;;6.00;99.90;;;;;;4860603;29;20714;-72
2023/01/30 09:57:52;;;;;;;10.40;4.63;;;6.00;99.90;;;;;;4875741;29;20203;-72
2023/01/30 10:00:38;;;;;;;11.32;4.55;;;6.00;99.90;;;;;;4861050;29;20237;-72
2023/01/30 10:03:04;;;;;;;7.90;3.92;;;6.00;99.90;;;;;;4860751;29;20679;-72
2023/01/30 10:05:49;;;;;;;10.03;3.53;;;6.00;99.90;;;;;;4860184;29;20289;-72
2023/01/30 10:08:37;;;;;;;10.48;5.70;;;6.00;99.90;;;;;;4860321;29;20791;-72
2023/01/30 10:11:22;;;;;;;11.57;3.72;;;6.00;99.90;;;;;;4891339;29;20657;-72
2023/01/30 10:14:09;;;;;;;13.77;3.92;;;6.10;99.90;;;;;;4860092;29;20199;-73
2023/01/30 10:16:53;;;;;;;14.77;4.38;;;6.10;99.90;;;;;;4860223;29;20219;-72
2023/01/30 10:19:50;;;;;;;10.45;4.00;;;6.10;99.90;;;;;;4841810;29;20268;-73
2023/01/30 10:22:34;;;;;;;11.30;3.75;;;6.10;99.90;;;;;;4865033;29;20555;-73
2023/01/30 10:25:31;;;;;;;9.35;3.45;;;6.10;99.90;;;;;;4840985;29;20223;-73
2023/01/30 10:28:08;;;;;;;10.55;3.72;;;6.10;99.90;;;;;;4842901;29;20690;-73
2023/01/30 10:30:37;;;;;;;9.50;3.42;;;6.10;99.90;;;;;;4874754;29;20210;-72
2023/01/30 10:33:27;;;;;;;9.88;3.42;;;6.10;99.90;;;;;;4861066;29;20203;-72
2023/01/30 10:36:15;;;;;;;12.23;3.47;;;6.10;99.90;;;;;;4860109;29;20270;-72
2023/01/30 10:38:46;;;;;;;11.55;3.35;;;6.10;99.90;;;;;;4842501;29;20165;-72
2023/01/30 10:41:38;;;;;;;12.98;3.05;;;6.10;99.90;;;;;;4856839;29;20195;-73
2023/01/30 10:44:07;;;;;;;10.90;3.40;;;6.10;99.90;;;;;;4856613;29;20199;-73
2023/01/30 10:46:41;;;;;;;10.77;2.95;;;6.10;99.90;;;;;;4859624;29;20211;-73
2023/01/30 10:49:49;;;;;;;13.98;3.55;;;6.10;99.90;;;;;;4878779;29;20281;-72
2023/01/30 10:52:23;;;;;;;12.48;3.03;;;6.10;99.90;;;;;;4859452;29;20223;-72
2023/01/30 10:55:12;;;;;;;5.95;2.53;;;6.20;99.90;;;;;;4859318;29;20218;-73
2023/01/30 10:58:22;;;;;;;9.23;2.97;;;6.10;99.90;;;;;;4859883;29;20640;-73
2023/01/30 11:01:10;;;;;;;6.20;2.38;;;6.20;99.90;;;;;;4859295;29;20552;-73
2023/01/30 11:03:46;;;;;;;13.48;3.13;;;6.20;99.90;;;;;;4875181;29;20228;-76
2023/01/30 11:06:18;;;;;;;16.67;3.40;;;6.20;99.90;;;;;;4859921;29;20306;-74
2023/01/30 11:08:50;;;;;;;11.70;3.38;;;6.20;99.90;;;;;;4859707;29;20207;-74
2023/01/30 11:11:40;;;;;;;7.68;2.35;;;6.20;99.90;;;;;;4859337;29;20255;-73
2023/01/30 11:14:10;;;;;;;10.68;3.00;;;6.20;99.90;;;;;;4875591;29;20223;-73
2023/01/30 11:16:48;;;;;;;17.02;3.63;;;6.20;99.90;;;;;;4875093;29;20230;-74
2023/01/30 11:19:22;;;;;;;15.25;3.92;;;6.20;99.90;;;;;;4859303;29;20302;-73
2023/01/30 11:21:59;;;;;;;11.35;2.90;;;6.20;99.90;;;;;;4874611;29;20176;-72
2023/01/30 11:24:39;;;;;;;10.90;2.78;;;6.20;99.90;;;;;;4839044;29;20235;-73
2023/01/30 11:27:18;;;;;;;15.68;2.72;;;6.30;99.90;;;;;;4852031;29;20197;-71
2023/01/30 11:29:45;;;;;;;9.48;2.83;;;6.30;99.90;;;;;;4878978;29;20179;-72
2023/01/30 11:32:20;;;;;;;9.48;2.67;;;6.30;99.90;;;;;;4865756;29;20559;-72
2023/01/30 11:35:09;;;;;;;7.28;3.03;;;6.30;99.90;;;;;;4859321;29;20752;-71
2023/01/30 11:37:40;;;;;;;12.77;3.05;;;6.30;99.90;;;;;;4859291;29;20752;-73
2023/01/30 11:40:24;;;;;;;16.98;3.33;;;6.30;99.90;;;;;;4859113;29;20187;-73
2023/01/30 11:42:58;;;;;;;8.32;2.80;;;6.30;99.90;;;;;;4844413;29;20195;-73
2023/01/30 11:45:29;;;;;;;8.82;2.95;;;6.30;99.90;;;;;;4874658;29;20207;-73
2023/01/30 11:48:00;;;;;;;13.63;3.53;;;6.30;99.90;;;;;;4862045;29;20199;-73
2023/01/30 11:50:38;;;;;;;8.70;2.30;;;6.30;99.90;;;;;;4859627;29;20179;-72
2023/01/30 11:53:26;;;;;;;13.82;2.65;;;6.30;99.90;;;;;;4859302;29;20222;-73
2023/01/30 11:55:57;;;;;;;15.23;2.60;;;6.30;99.90;;;;;;4854565;29;20211;-73
2023/01/30 11:58:23;;;;;;;11.98;2.70;;;6.30;99.90;;;;;;4877330;29;20207;-73
2023/01/30 12:01:13;;;;;;;8.75;2.35;;;6.40;99.90;;;;;;4844789;29;20256;-76
2023/01/30 12:03:49;;;;;;;7.45;2.63;;;6.40;99.90;;;;;;4858976;29;20178;-74
2023/01/30 12:06:28;;;;;;;7.47;2.80;;;6.40;99.90;;;;;;4871513;29;20290;-74
2023/01/30 12:08:54;;;;;;;10.98;3.10;;;6.40;99.90;;;;;;4879075;29;20257;-74
2023/01/30 12:11:29;;;;;;;11.10;2.72;;;6.40;99.90;;;;;;4859135;29;20747;-74
2023/01/30 12:14:33;;;;;;;11.13;2.78;;;6.40;99.90;;;;;;4859466;29;20180;-73
2023/01/30 12:17:20;;;;;;;11.98;4.32;;;6.40;99.90;;;;;;4858998;29;20298;-73
2023/01/30 12:19:59;;;;;;;9.93;2.35;;;6.40;99.90;;;;;;4860085;29;20195;-74
2023/01/30 12:22:59;;;;;;;11.50;4.38;;;6.40;99.90;;;;;;4855425;29;20726;-73
2023/01/30 12:25:35;;;;;;;14.98;2.88;;;6.40;99.90;;;;;;4866033;29;20253;-74
2023/01/30 12:28:31;;;;;;;8.55;2.60;;;6.40;99.90;;;;;;4874760;29;20183;-74
2023/01/30 12:31:23;;;;;;;8.73;2.65;;;6.40;99.90;;;;;;4858466;29;20222;-74
2023/01/30 12:33:55;;;;;;;11.80;2.60;;;6.50;99.90;;;;;;4829226;29;20191;-74
2023/01/30 12:36:32;;;;;;;10.13;2.53;;;6.50;99.90;;;;;;4873657;29;20271;-74
2023/01/30 12:39:07;;;;;;;9.35;2.60;;;6.50;99.90;;;;;;4872580;29;20591;-71
2023/01/30 12:42:19;;;;;;;15.57;3.88;;;6.50;99.90;;;;;;4857083;29;20190;-71
2023/01/30 12:45:13;;;;;;;9.25;2.65;;;6.50;99.90;;;;;;4829030;29;20284;-73
2023/01/30 12:48:04;;;;;;;9.85;3.05;;;6.50;99.90;;;;;;4872234;29;20642;-73
2023/01/30 12:50:41;;;;;;;6.90;2.53;;;6.50;99.90;;;;;;4857682;29;20203;-73
2023/01/30 12:53:32;;;;;;;10.57;2.35;;;6.50;99.90;;;;;;4871716;29;20198;-73
2023/01/30 12:56:16;;;;;;;7.55;2.15;;;6.50;99.90;;;;;;4858343;29;20240;-72
2023/01/30 12:59:08;;;;;;;6.95;2.40;;;6.50;99.90;;;;;;4858226;29;20199;-73
2023/01/30 13:01:42;;;;;;;9.75;2.13;;;6.50;99.90;;;;;;4876170;29;20240;-73
2023/01/30 13:04:48;;;;;;;9.55;2.85;;;6.60;99.90;;;;;;4862040;29;20206;-73
2023/01/30 13:07:41;;;;;;;6.53;2.33;;;6.60;99.90;;;;;;4862268;29;20220;-73
2023/01/30 13:10:13;;;;;;;13.48;2.80;;;6.60;99.90;;;;;;4863961;29;20619;-72
2023/01/30 13:12:48;;;;;;;8.35;2.78;;;6.60;99.90;;;;;;4861731;29;20270;-73
2023/01/30 13:15:20;;;;;;;9.50;2.72;;;6.60;99.90;;;;;;4877540;29;20687;-73
2023/01/30 13:18:07;;;;;;;9.85;2.03;;;6.60;99.90;;;;;;4861720;29;20290;-73
2023/01/30 13:20:53;;;;;;;5.25;2.72;;;6.60;99.90;;;;;;4853245;29;20217;-73
2023/01/30 13:23:24;;;;;;;8.85;3.17;;;6.60;99.90;;;;;;4892718;23;20681;-75